sensor_id;sensor_type;location;lat;lon;timestamp;P1;durP1;ratioP1;P2;durP2;ratioP2
4696;SDS011;2362;50.780;0.292;2022-12-22T00:01:33;125.95;;;29.92;;
4696;SDS011;2362;50.780;0.292;2022-12-22T00:04:18;93.03;;;26.00;;
4696;SDS011;2362;50.780;0.292;2022-12-22T00:07:03;116.57;;;27.95;;
4696;SDS011;2362;50.780;0.292;2022-12-22T00:09:47;119.07;;;29.60;;
4696;SDS011;2362;50.780;0.292;2022-12-22T00:12:32;104.72;;;27.38;;
4696;SDS011;2362;50.780;0.292;2022-12-22T00:15:16;89.55;;;23.27;;
4696;SDS011;2362;50.780;0.292;2022-12-22T00:18:26;92.97;;;24.38;;
4696;SDS011;2362;50.780;0.292;2022-12-22T00:21:15;102.20;;;27.35;;
4696;SDS011;2362;50.780;0.292;2022-12-22T00:23:59;82.70;;;24.92;;
4696;SDS011;2362;50.780;0.292;2022-12-22T00:26:44;77.22;;;23.95;;
4696;SDS011;2362;50.780;0.292;2022-12-22T00:29:36;86.03;;;24.83;;
4696;SDS011;2362;50.780;0.292;2022-12-22T00:32:22;70.32;;;22.33;;
4696;SDS011;2362;50.780;0.292;2022-12-22T00:35:13;72.50;;;22.80;;
4696;SDS011;2362;50.780;0.292;2022-12-22T00:37:58;79.30;;;24.17;;
4696;SDS011;2362;50.780;0.292;2022-12-22T00:40:42;68.93;;;24.00;;
4696;SDS011;2362;50.780;0.292;2022-12-22T00:43:27;81.38;;;23.17;;
4696;SDS011;2362;50.780;0.292;2022-12-22T00:46:11;76.40;;;22.48;;
4696;SDS011;2362;50.780;0.292;2022-12-22T00:49:00;81.72;;;23.63;;
4696;SDS011;2362;50.780;0.292;2022-12-22T00:51:45;78.57;;;24.60;;
4696;SDS011;2362;50.780;0.292;2022-12-22T00:54:29;83.95;;;22.73;;
4696;SDS011;2362;50.780;0.292;2022-12-22T00:57:15;71.55;;;23.40;;
4696;SDS011;2362;50.780;0.292;2022-12-22T01:00:02;72.75;;;23.50;;
4696;SDS011;2362;50.780;0.292;2022-12-22T01:02:47;66.35;;;23.98;;
4696;SDS011;2362;50.780;0.292;2022-12-22T01:05:32;68.05;;;23.05;;
4696;SDS011;2362;50.780;0.292;2022-12-22T01:08:16;80.55;;;23.83;;
4696;SDS011;2362;50.780;0.292;2022-12-22T01:11:01;72.75;;;23.88;;
4696;SDS011;2362;50.780;0.292;2022-12-22T01:13:45;62.38;;;22.85;;
4696;SDS011;2362;50.780;0.292;2022-12-22T01:16:29;57.03;;;21.52;;
4696;SDS011;2362;50.780;0.292;2022-12-22T01:19:14;69.20;;;23.45;;
4696;SDS011;2362;50.780;0.292;2022-12-22T01:21:58;58.38;;;22.15;;
4696;SDS011;2362;50.780;0.292;2022-12-22T01:24:43;54.67;;;22.00;;
4696;SDS011;2362;50.780;0.292;2022-12-22T01:27:27;62.50;;;22.10;;
4696;SDS011;2362;50.780;0.292;2022-12-22T01:30:12;64.43;;;23.92;;
4696;SDS011;2362;50.780;0.292;2022-12-22T01:32:56;55.45;;;20.20;;
4696;SDS011;2362;50.780;0.292;2022-12-22T01:35:41;53.67;;;20.90;;
4696;SDS011;2362;50.780;0.292;2022-12-22T01:38:25;60.30;;;22.48;;
4696;SDS011;2362;50.780;0.292;2022-12-22T01:41:11;56.28;;;21.65;;
4696;SDS011;2362;50.780;0.292;2022-12-22T01:44:01;55.08;;;21.20;;
4696;SDS011;2362;50.780;0.292;2022-12-22T01:46:48;52.17;;;20.85;;
4696;SDS011;2362;50.780;0.292;2022-12-22T01:49:37;49.80;;;20.00;;
4696;SDS011;2362;50.780;0.292;2022-12-22T01:52:26;43.13;;;19.58;;
4696;SDS011;2362;50.780;0.292;2022-12-22T01:55:14;37.38;;;18.50;;
4696;SDS011;2362;50.780;0.292;2022-12-22T01:58:03;42.67;;;17.40;;
4696;SDS011;2362;50.780;0.292;2022-12-22T02:00:51;49.00;;;17.67;;
4696;SDS011;2362;50.780;0.292;2022-12-22T02:03:35;41.75;;;17.17;;
4696;SDS011;2362;50.780;0.292;2022-12-22T02:06:30;42.47;;;15.80;;
4696;SDS011;2362;50.780;0.292;2022-12-22T02:09:38;34.33;;;15.43;;
4696;SDS011;2362;50.780;0.292;2022-12-22T02:12:44;34.97;;;16.05;;
4696;SDS011;2362;50.780;0.292;2022-12-22T02:16:16;38.50;;;15.48;;
4696;SDS011;2362;50.780;0.292;2022-12-22T02:25:59;30.90;;;12.50;;
4696;SDS011;2362;50.780;0.292;2022-12-22T02:29:02;24.98;;;12.70;;
4696;SDS011;2362;50.780;0.292;2022-12-22T02:31:48;32.25;;;14.25;;
4696;SDS011;2362;50.780;0.292;2022-12-22T02:34:33;30.67;;;12.13;;
4696;SDS011;2362;50.780;0.292;2022-12-22T02:40:41;25.77;;;9.23;;
4696;SDS011;2362;50.780;0.292;2022-12-22T02:46:52;23.80;;;7.70;;
4696;SDS011;2362;50.780;0.292;2022-12-22T02:49:57;18.75;;;8.57;;
4696;SDS011;2362;50.780;0.292;2022-12-22T02:53:01;21.52;;;10.50;;
4696;SDS011;2362;50.780;0.292;2022-12-22T02:55:48;16.70;;;9.23;;
4696;SDS011;2362;50.780;0.292;2022-12-22T02:58:33;23.95;;;9.43;;
4696;SDS011;2362;50.780;0.292;2022-12-22T03:01:18;25.92;;;9.65;;
4696;SDS011;2362;50.780;0.292;2022-12-22T03:04:02;24.45;;;8.85;;
4696;SDS011;2362;50.780;0.292;2022-12-22T03:06:47;24.00;;;10.13;;
4696;SDS011;2362;50.780;0.292;2022-12-22T03:09:31;29.55;;;11.43;;
4696;SDS011;2362;50.780;0.292;2022-12-22T03:12:16;30.80;;;10.98;;
4696;SDS011;2362;50.780;0.292;2022-12-22T03:15:00;20.90;;;11.18;;
4696;SDS011;2362;50.780;0.292;2022-12-22T03:17:44;22.50;;;10.65;;
4696;SDS011;2362;50.780;0.292;2022-12-22T03:20:28;21.20;;;11.32;;
4696;SDS011;2362;50.780;0.292;2022-12-22T03:23:13;29.30;;;11.20;;
4696;SDS011;2362;50.780;0.292;2022-12-22T03:25:57;24.90;;;11.90;;
4696;SDS011;2362;50.780;0.292;2022-12-22T03:28:24;30.75;;;11.57;;
4696;SDS011;2362;50.780;0.292;2022-12-22T03:31:16;32.83;;;11.82;;
4696;SDS011;2362;50.780;0.292;2022-12-22T03:33:41;28.77;;;10.95;;
4696;SDS011;2362;50.780;0.292;2022-12-22T03:36:07;22.73;;;10.93;;
4696;SDS011;2362;50.780;0.292;2022-12-22T03:38:34;28.90;;;11.65;;
4696;SDS011;2362;50.780;0.292;2022-12-22T03:41:00;24.58;;;11.15;;
4696;SDS011;2362;50.780;0.292;2022-12-22T03:43:25;27.63;;;10.90;;
4696;SDS011;2362;50.780;0.292;2022-12-22T03:46:13;21.85;;;10.95;;
4696;SDS011;2362;50.780;0.292;2022-12-22T03:48:59;29.00;;;10.70;;
4696;SDS011;2362;50.780;0.292;2022-12-22T03:51:38;24.42;;;11.82;;
4696;SDS011;2362;50.780;0.292;2022-12-22T03:54:16;27.48;;;12.55;;
4696;SDS011;2362;50.780;0.292;2022-12-22T03:56:46;19.58;;;10.90;;
4696;SDS011;2362;50.780;0.292;2022-12-22T03:59:12;30.45;;;12.15;;
4696;SDS011;2362;50.780;0.292;2022-12-22T04:01:41;38.50;;;12.23;;
4696;SDS011;2362;50.780;0.292;2022-12-22T04:04:19;23.25;;;10.80;;
4696;SDS011;2362;50.780;0.292;2022-12-22T04:06:46;17.30;;;9.43;;
4696;SDS011;2362;50.780;0.292;2022-12-22T04:09:12;20.40;;;10.05;;
4696;SDS011;2362;50.780;0.292;2022-12-22T04:11:38;22.77;;;7.85;;
4696;SDS011;2362;50.780;0.292;2022-12-22T04:14:22;12.88;;;5.82;;
4696;SDS011;2362;50.780;0.292;2022-12-22T04:16:48;16.30;;;6.45;;
4696;SDS011;2362;50.780;0.292;2022-12-22T04:19:14;11.98;;;3.25;;
4696;SDS011;2362;50.780;0.292;2022-12-22T04:21:40;8.80;;;3.40;;
4696;SDS011;2362;50.780;0.292;2022-12-22T04:24:07;16.90;;;3.65;;
4696;SDS011;2362;50.780;0.292;2022-12-22T04:26:33;12.13;;;4.93;;
4696;SDS011;2362;50.780;0.292;2022-12-22T04:28:59;12.20;;;4.57;;
4696;SDS011;2362;50.780;0.292;2022-12-22T04:31:25;10.55;;;4.03;;
4696;SDS011;2362;50.780;0.292;2022-12-22T04:33:50;12.60;;;4.00;;
4696;SDS011;2362;50.780;0.292;2022-12-22T04:36:42;11.85;;;3.83;;
4696;SDS011;2362;50.780;0.292;2022-12-22T04:39:07;16.45;;;4.45;;
4696;SDS011;2362;50.780;0.292;2022-12-22T04:41:33;17.92;;;4.65;;
4696;SDS011;2362;50.780;0.292;2022-12-22T04:43:59;13.13;;;3.95;;
4696;SDS011;2362;50.780;0.292;2022-12-22T04:46:24;24.73;;;4.90;;
4696;SDS011;2362;50.780;0.292;2022-12-22T04:48:50;15.65;;;4.68;;
4696;SDS011;2362;50.780;0.292;2022-12-22T04:51:15;22.70;;;3.92;;
4696;SDS011;2362;50.780;0.292;2022-12-22T04:53:41;25.17;;;4.32;;
4696;SDS011;2362;50.780;0.292;2022-12-22T04:56:07;19.90;;;5.70;;
4696;SDS011;2362;50.780;0.292;2022-12-22T04:58:33;24.30;;;7.75;;
4696;SDS011;2362;50.780;0.292;2022-12-22T05:01:09;29.50;;;11.32;;
4696;SDS011;2362;50.780;0.292;2022-12-22T05:03:36;31.83;;;13.65;;
4696;SDS011;2362;50.780;0.292;2022-12-22T05:06:04;44.13;;;14.60;;
4696;SDS011;2362;50.780;0.292;2022-12-22T05:08:30;54.38;;;17.73;;
4696;SDS011;2362;50.780;0.292;2022-12-22T05:10:56;43.30;;;15.63;;
4696;SDS011;2362;50.780;0.292;2022-12-22T05:13:22;46.97;;;16.52;;
4696;SDS011;2362;50.780;0.292;2022-12-22T05:15:47;44.65;;;14.98;;
4696;SDS011;2362;50.780;0.292;2022-12-22T05:18:13;41.58;;;14.90;;
4696;SDS011;2362;50.780;0.292;2022-12-22T05:20:39;46.38;;;16.00;;
4696;SDS011;2362;50.780;0.292;2022-12-22T05:23:04;43.38;;;16.48;;
4696;SDS011;2362;50.780;0.292;2022-12-22T05:25:30;58.80;;;17.95;;
4696;SDS011;2362;50.780;0.292;2022-12-22T05:27:56;38.63;;;14.27;;
4696;SDS011;2362;50.780;0.292;2022-12-22T05:30:21;36.28;;;14.45;;
4696;SDS011;2362;50.780;0.292;2022-12-22T05:32:47;41.53;;;15.38;;
4696;SDS011;2362;50.780;0.292;2022-12-22T05:35:13;46.90;;;17.27;;
4696;SDS011;2362;50.780;0.292;2022-12-22T05:37:40;38.90;;;16.02;;
4696;SDS011;2362;50.780;0.292;2022-12-22T05:40:06;44.15;;;17.65;;
4696;SDS011;2362;50.780;0.292;2022-12-22T05:42:32;37.45;;;16.95;;
4696;SDS011;2362;50.780;0.292;2022-12-22T05:47:28;39.92;;;17.67;;
4696;SDS011;2362;50.780;0.292;2022-12-22T05:49:53;35.35;;;16.40;;
4696;SDS011;2362;50.780;0.292;2022-12-22T05:52:19;35.53;;;13.98;;
4696;SDS011;2362;50.780;0.292;2022-12-22T05:54:45;32.97;;;10.50;;
4696;SDS011;2362;50.780;0.292;2022-12-22T05:57:10;27.67;;;14.20;;
4696;SDS011;2362;50.780;0.292;2022-12-22T05:59:36;29.92;;;12.23;;
4696;SDS011;2362;50.780;0.292;2022-12-22T06:02:02;27.70;;;12.60;;
4696;SDS011;2362;50.780;0.292;2022-12-22T06:04:27;23.17;;;10.95;;
4696;SDS011;2362;50.780;0.292;2022-12-22T06:06:55;38.30;;;14.10;;
4696;SDS011;2362;50.780;0.292;2022-12-22T06:09:21;28.73;;;12.02;;
4696;SDS011;2362;50.780;0.292;2022-12-22T06:11:46;28.08;;;13.52;;
4696;SDS011;2362;50.780;0.292;2022-12-22T06:14:12;37.33;;;13.90;;
4696;SDS011;2362;50.780;0.292;2022-12-22T06:16:38;38.67;;;14.57;;
4696;SDS011;2362;50.780;0.292;2022-12-22T06:19:04;31.67;;;15.23;;
4696;SDS011;2362;50.780;0.292;2022-12-22T06:21:29;32.65;;;16.08;;
4696;SDS011;2362;50.780;0.292;2022-12-22T06:23:55;34.03;;;16.35;;
4696;SDS011;2362;50.780;0.292;2022-12-22T06:26:21;35.17;;;16.92;;
4696;SDS011;2362;50.780;0.292;2022-12-22T06:28:46;42.90;;;18.30;;
4696;SDS011;2362;50.780;0.292;2022-12-22T06:31:12;39.22;;;16.98;;
4696;SDS011;2362;50.780;0.292;2022-12-22T06:33:38;35.25;;;16.08;;
4696;SDS011;2362;50.780;0.292;2022-12-22T06:36:04;37.30;;;17.65;;
4696;SDS011;2362;50.780;0.292;2022-12-22T06:38:34;33.78;;;15.82;;
4696;SDS011;2362;50.780;0.292;2022-12-22T06:41:00;28.85;;;14.75;;
4696;SDS011;2362;50.780;0.292;2022-12-22T06:43:25;33.90;;;15.13;;
4696;SDS011;2362;50.780;0.292;2022-12-22T06:45:51;29.90;;;14.93;;
4696;SDS011;2362;50.780;0.292;2022-12-22T06:48:17;33.80;;;15.20;;
4696;SDS011;2362;50.780;0.292;2022-12-22T06:50:43;32.50;;;16.23;;
4696;SDS011;2362;50.780;0.292;2022-12-22T06:53:09;36.33;;;13.52;;
4696;SDS011;2362;50.780;0.292;2022-12-22T06:55:35;27.92;;;13.15;;
4696;SDS011;2362;50.780;0.292;2022-12-22T06:58:02;29.85;;;12.85;;
4696;SDS011;2362;50.780;0.292;2022-12-22T07:00:28;26.92;;;14.10;;
4696;SDS011;2362;50.780;0.292;2022-12-22T07:02:54;34.85;;;16.83;;
4696;SDS011;2362;50.780;0.292;2022-12-22T07:05:20;36.63;;;17.55;;
4696;SDS011;2362;50.780;0.292;2022-12-22T07:07:48;37.42;;;18.70;;
4696;SDS011;2362;50.780;0.292;2022-12-22T07:10:14;34.30;;;17.40;;
4696;SDS011;2362;50.780;0.292;2022-12-22T07:12:39;35.97;;;17.63;;
4696;SDS011;2362;50.780;0.292;2022-12-22T07:15:06;37.30;;;20.40;;
4696;SDS011;2362;50.780;0.292;2022-12-22T07:17:32;39.38;;;19.67;;
4696;SDS011;2362;50.780;0.292;2022-12-22T07:19:58;45.00;;;20.50;;
4696;SDS011;2362;50.780;0.292;2022-12-22T07:22:24;35.33;;;18.80;;
4696;SDS011;2362;50.780;0.292;2022-12-22T07:24:49;34.50;;;18.38;;
4696;SDS011;2362;50.780;0.292;2022-12-22T07:27:15;39.72;;;17.80;;
4696;SDS011;2362;50.780;0.292;2022-12-22T07:29:41;36.33;;;19.10;;
4696;SDS011;2362;50.780;0.292;2022-12-22T07:32:07;30.52;;;17.98;;
4696;SDS011;2362;50.780;0.292;2022-12-22T07:34:32;30.02;;;17.65;;
4696;SDS011;2362;50.780;0.292;2022-12-22T07:36:58;41.35;;;20.80;;
4696;SDS011;2362;50.780;0.292;2022-12-22T07:39:24;44.25;;;19.38;;
4696;SDS011;2362;50.780;0.292;2022-12-22T07:41:51;30.88;;;16.92;;
4696;SDS011;2362;50.780;0.292;2022-12-22T07:44:35;37.03;;;18.63;;
4696;SDS011;2362;50.780;0.292;2022-12-22T07:47:00;30.67;;;16.25;;
4696;SDS011;2362;50.780;0.292;2022-12-22T07:49:26;42.72;;;16.02;;
4696;SDS011;2362;50.780;0.292;2022-12-22T07:52:10;31.35;;;14.52;;
4696;SDS011;2362;50.780;0.292;2022-12-22T07:54:36;31.65;;;15.98;;
4696;SDS011;2362;50.780;0.292;2022-12-22T07:57:02;40.90;;;16.85;;
4696;SDS011;2362;50.780;0.292;2022-12-22T07:59:27;33.38;;;15.15;;
4696;SDS011;2362;50.780;0.292;2022-12-22T08:01:53;37.88;;;14.60;;
4696;SDS011;2362;50.780;0.292;2022-12-22T08:04:19;31.38;;;9.45;;
4696;SDS011;2362;50.780;0.292;2022-12-22T08:06:46;31.27;;;6.70;;
4696;SDS011;2362;50.780;0.292;2022-12-22T08:09:14;20.63;;;4.32;;
4696;SDS011;2362;50.780;0.292;2022-12-22T08:11:41;21.05;;;3.67;;
4696;SDS011;2362;50.780;0.292;2022-12-22T08:14:07;15.43;;;3.05;;
4696;SDS011;2362;50.780;0.292;2022-12-22T08:16:32;23.30;;;3.25;;
4696;SDS011;2362;50.780;0.292;2022-12-22T08:18:58;24.23;;;3.40;;
4696;SDS011;2362;50.780;0.292;2022-12-22T08:21:24;30.05;;;2.72;;
4696;SDS011;2362;50.780;0.292;2022-12-22T08:23:49;28.48;;;3.05;;
4696;SDS011;2362;50.780;0.292;2022-12-22T08:26:20;25.33;;;2.75;;
4696;SDS011;2362;50.780;0.292;2022-12-22T08:28:55;22.52;;;2.60;;
4696;SDS011;2362;50.780;0.292;2022-12-22T08:31:44;12.88;;;2.03;;
4696;SDS011;2362;50.780;0.292;2022-12-22T08:34:11;10.20;;;1.65;;
4696;SDS011;2362;50.780;0.292;2022-12-22T08:36:40;20.55;;;2.05;;
4696;SDS011;2362;50.780;0.292;2022-12-22T08:39:08;14.52;;;1.77;;
4696;SDS011;2362;50.780;0.292;2022-12-22T08:41:35;9.15;;;0.80;;
4696;SDS011;2362;50.780;0.292;2022-12-22T08:44:18;11.80;;;1.00;;
4696;SDS011;2362;50.780;0.292;2022-12-22T08:46:48;8.00;;;0.70;;
4696;SDS011;2362;50.780;0.292;2022-12-22T08:49:14;5.82;;;1.10;;
4696;SDS011;2362;50.780;0.292;2022-12-22T08:51:40;7.20;;;0.75;;
4696;SDS011;2362;50.780;0.292;2022-12-22T08:54:06;11.55;;;0.82;;
4696;SDS011;2362;50.780;0.292;2022-12-22T08:56:32;7.00;;;0.98;;
4696;SDS011;2362;50.780;0.292;2022-12-22T08:58:59;15.73;;;1.73;;
4696;SDS011;2362;50.780;0.292;2022-12-22T09:01:29;5.28;;;1.02;;
4696;SDS011;2362;50.780;0.292;2022-12-22T09:03:55;12.82;;;1.05;;
4696;SDS011;2362;50.780;0.292;2022-12-22T09:06:22;14.23;;;1.80;;
4696;SDS011;2362;50.780;0.292;2022-12-22T09:08:58;19.88;;;2.10;;
4696;SDS011;2362;50.780;0.292;2022-12-22T09:11:51;13.15;;;1.48;;
4696;SDS011;2362;50.780;0.292;2022-12-22T09:14:17;23.77;;;2.33;;
4696;SDS011;2362;50.780;0.292;2022-12-22T09:16:43;33.58;;;2.22;;
4696;SDS011;2362;50.780;0.292;2022-12-22T09:19:08;21.38;;;2.60;;
4696;SDS011;2362;50.780;0.292;2022-12-22T09:21:34;39.38;;;3.55;;
4696;SDS011;2362;50.780;0.292;2022-12-22T09:24:01;48.00;;;5.63;;
4696;SDS011;2362;50.780;0.292;2022-12-22T09:26:28;60.03;;;5.78;;
4696;SDS011;2362;50.780;0.292;2022-12-22T09:28:54;80.68;;;6.63;;
4696;SDS011;2362;50.780;0.292;2022-12-22T09:31:21;76.55;;;6.82;;
4696;SDS011;2362;50.780;0.292;2022-12-22T09:33:47;74.53;;;8.55;;
4696;SDS011;2362;50.780;0.292;2022-12-22T09:36:15;94.00;;;10.05;;
4696;SDS011;2362;50.780;0.292;2022-12-22T09:38:43;101.97;;;8.23;;
4696;SDS011;2362;50.780;0.292;2022-12-22T09:41:12;127.22;;;12.13;;
4696;SDS011;2362;50.780;0.292;2022-12-22T09:43:40;134.23;;;11.82;;
4696;SDS011;2362;50.780;0.292;2022-12-22T09:46:14;138.55;;;13.43;;
4696;SDS011;2362;50.780;0.292;2022-12-22T09:48:45;152.68;;;18.55;;
4696;SDS011;2362;50.780;0.292;2022-12-22T09:51:11;214.63;;;19.75;;
4696;SDS011;2362;50.780;0.292;2022-12-22T09:53:38;177.30;;;20.25;;
4696;SDS011;2362;50.780;0.292;2022-12-22T09:56:04;171.13;;;20.77;;
4696;SDS011;2362;50.780;0.292;2022-12-22T09:58:33;239.73;;;23.58;;
4696;SDS011;2362;50.780;0.292;2022-12-22T10:08:44;143.15;;;16.45;;
4696;SDS011;2362;50.780;0.292;2022-12-22T10:11:14;185.50;;;18.80;;
4696;SDS011;2362;50.780;0.292;2022-12-22T10:13:42;151.63;;;15.07;;
4696;SDS011;2362;50.780;0.292;2022-12-22T10:16:15;119.82;;;13.43;;
4696;SDS011;2362;50.780;0.292;2022-12-22T10:18:56;145.75;;;15.50;;
4696;SDS011;2362;50.780;0.292;2022-12-22T10:21:25;155.50;;;16.40;;
4696;SDS011;2362;50.780;0.292;2022-12-22T10:23:51;131.15;;;16.27;;
4696;SDS011;2362;50.780;0.292;2022-12-22T10:26:22;157.73;;;16.75;;
4696;SDS011;2362;50.780;0.292;2022-12-22T10:31:26;169.02;;;16.95;;
4696;SDS011;2362;50.780;0.292;2022-12-22T10:34:09;170.73;;;18.08;;
4696;SDS011;2362;50.780;0.292;2022-12-22T10:36:35;168.68;;;19.38;;
4696;SDS011;2362;50.780;0.292;2022-12-22T10:39:04;165.52;;;18.17;;
4696;SDS011;2362;50.780;0.292;2022-12-22T10:41:50;199.77;;;18.92;;
4696;SDS011;2362;50.780;0.292;2022-12-22T10:44:20;198.35;;;19.90;;
4696;SDS011;2362;50.780;0.292;2022-12-22T10:46:49;191.43;;;21.95;;
4696;SDS011;2362;50.780;0.292;2022-12-22T10:51:51;172.68;;;20.25;;
4696;SDS011;2362;50.780;0.292;2022-12-22T10:54:23;210.27;;;22.83;;
4696;SDS011;2362;50.780;0.292;2022-12-22T10:57:37;185.50;;;21.25;;
4696;SDS011;2362;50.780;0.292;2022-12-22T11:02:31;192.02;;;22.35;;
4696;SDS011;2362;50.780;0.292;2022-12-22T11:05:03;195.75;;;20.58;;
4696;SDS011;2362;50.780;0.292;2022-12-22T11:07:37;188.10;;;22.17;;
4696;SDS011;2362;50.780;0.292;2022-12-22T11:12:54;172.55;;;19.60;;
4696;SDS011;2362;50.780;0.292;2022-12-22T11:15:48;173.35;;;19.98;;
4696;SDS011;2362;50.780;0.292;2022-12-22T11:32:28;216.40;;;23.38;;
4696;SDS011;2362;50.780;0.292;2022-12-22T11:35:25;209.63;;;24.17;;
4696;SDS011;2362;50.780;0.292;2022-12-22T11:40:40;205.50;;;21.75;;
4696;SDS011;2362;50.780;0.292;2022-12-22T11:43:31;207.20;;;22.52;;
4696;SDS011;2362;50.780;0.292;2022-12-22T11:51:29;214.45;;;25.92;;
4696;SDS011;2362;50.780;0.292;2022-12-22T12:08:01;239.07;;;27.10;;
4696;SDS011;2362;50.780;0.292;2022-12-22T12:10:50;224.20;;;26.75;;
4696;SDS011;2362;50.780;0.292;2022-12-22T12:32:43;202.48;;;25.30;;
4696;SDS011;2362;50.780;0.292;2022-12-22T12:37:46;189.18;;;23.08;;
4696;SDS011;2362;50.780;0.292;2022-12-22T12:43:04;206.93;;;25.45;;
4696;SDS011;2362;50.780;0.292;2022-12-22T12:50:46;177.00;;;21.00;;
4696;SDS011;2362;50.780;0.292;2022-12-22T12:53:18;171.18;;;19.50;;
4696;SDS011;2362;50.780;0.292;2022-12-22T13:01:12;124.47;;;15.57;;
4696;SDS011;2362;50.780;0.292;2022-12-22T13:03:53;122.53;;;14.30;;
4696;SDS011;2362;50.780;0.292;2022-12-22T13:09:16;101.00;;;14.13;;
4696;SDS011;2362;50.780;0.292;2022-12-22T13:11:46;122.03;;;15.82;;
4696;SDS011;2362;50.780;0.292;2022-12-22T13:20:01;170.90;;;22.15;;
4696;SDS011;2362;50.780;0.292;2022-12-22T13:22:27;147.77;;;20.92;;
4696;SDS011;2362;50.780;0.292;2022-12-22T13:24:53;173.10;;;18.77;;
4696;SDS011;2362;50.780;0.292;2022-12-22T13:27:20;161.75;;;20.52;;
4696;SDS011;2362;50.780;0.292;2022-12-22T13:29:47;189.32;;;21.83;;
4696;SDS011;2362;50.780;0.292;2022-12-22T13:37:18;176.35;;;22.88;;
4696;SDS011;2362;50.780;0.292;2022-12-22T13:43:21;193.50;;;22.70;;
4696;SDS011;2362;50.780;0.292;2022-12-22T13:45:45;189.48;;;23.85;;
4696;SDS011;2362;50.780;0.292;2022-12-22T13:48:14;170.88;;;21.67;;
4696;SDS011;2362;50.780;0.292;2022-12-22T13:50:49;182.13;;;22.40;;
4696;SDS011;2362;50.780;0.292;2022-12-22T13:53:29;176.48;;;23.92;;
4696;SDS011;2362;50.780;0.292;2022-12-22T13:55:59;163.10;;;18.38;;
4696;SDS011;2362;50.780;0.292;2022-12-22T14:01:34;155.18;;;18.55;;
4696;SDS011;2362;50.780;0.292;2022-12-22T14:03:47;128.85;;;16.15;;
4696;SDS011;2362;50.780;0.292;2022-12-22T14:11:47;90.22;;;13.00;;
4696;SDS011;2362;50.780;0.292;2022-12-22T14:14:17;132.93;;;16.98;;
4696;SDS011;2362;50.780;0.292;2022-12-22T14:16:47;132.38;;;15.23;;
4696;SDS011;2362;50.780;0.292;2022-12-22T14:19:17;157.23;;;18.20;;
4696;SDS011;2362;50.780;0.292;2022-12-22T14:21:45;154.40;;;18.48;;
4696;SDS011;2362;50.780;0.292;2022-12-22T14:24:18;148.90;;;17.05;;
4696;SDS011;2362;50.780;0.292;2022-12-22T14:26:48;162.57;;;18.50;;
4696;SDS011;2362;50.780;0.292;2022-12-22T14:29:17;128.68;;;15.80;;
4696;SDS011;2362;50.780;0.292;2022-12-22T14:31:50;122.35;;;16.17;;
4696;SDS011;2362;50.780;0.292;2022-12-22T14:34:27;165.18;;;21.23;;
4696;SDS011;2362;50.780;0.292;2022-12-22T14:36:54;169.30;;;17.85;;
4696;SDS011;2362;50.780;0.292;2022-12-22T14:39:21;152.73;;;19.13;;
4696;SDS011;2362;50.780;0.292;2022-12-22T14:41:50;153.35;;;15.73;;
4696;SDS011;2362;50.780;0.292;2022-12-22T14:44:22;146.32;;;18.80;;
4696;SDS011;2362;50.780;0.292;2022-12-22T14:52:16;170.18;;;19.73;;
4696;SDS011;2362;50.780;0.292;2022-12-22T14:54:45;169.70;;;20.00;;
4696;SDS011;2362;50.780;0.292;2022-12-22T14:57:15;150.20;;;18.85;;
4696;SDS011;2362;50.780;0.292;2022-12-22T14:59:58;145.82;;;15.98;;
4696;SDS011;2362;50.780;0.292;2022-12-22T15:02:28;156.20;;;17.58;;
4696;SDS011;2362;50.780;0.292;2022-12-22T15:05:32;168.50;;;17.15;;
4696;SDS011;2362;50.780;0.292;2022-12-22T15:08:01;156.63;;;16.52;;
4696;SDS011;2362;50.780;0.292;2022-12-22T15:10:34;147.30;;;16.55;;
4696;SDS011;2362;50.780;0.292;2022-12-22T15:13:04;166.77;;;19.63;;
4696;SDS011;2362;50.780;0.292;2022-12-22T15:15:34;134.65;;;14.93;;
4696;SDS011;2362;50.780;0.292;2022-12-22T15:18:00;139.18;;;14.32;;
4696;SDS011;2362;50.780;0.292;2022-12-22T15:20:27;131.38;;;15.90;;
4696;SDS011;2362;50.780;0.292;2022-12-22T15:22:53;141.45;;;16.15;;
4696;SDS011;2362;50.780;0.292;2022-12-22T15:25:20;159.30;;;17.95;;
4696;SDS011;2362;50.780;0.292;2022-12-22T15:27:47;134.10;;;15.52;;
4696;SDS011;2362;50.780;0.292;2022-12-22T15:30:16;126.13;;;15.88;;
4696;SDS011;2362;50.780;0.292;2022-12-22T15:32:43;149.07;;;14.43;;
4696;SDS011;2362;50.780;0.292;2022-12-22T15:35:20;128.95;;;13.50;;
4696;SDS011;2362;50.780;0.292;2022-12-22T15:37:49;127.68;;;15.32;;
4696;SDS011;2362;50.780;0.292;2022-12-22T15:40:16;139.50;;;13.95;;
4696;SDS011;2362;50.780;0.292;2022-12-22T15:42:44;125.57;;;13.48;;
4696;SDS011;2362;50.780;0.292;2022-12-22T15:45:11;122.38;;;14.68;;
4696;SDS011;2362;50.780;0.292;2022-12-22T15:47:38;115.20;;;13.40;;
4696;SDS011;2362;50.780;0.292;2022-12-22T15:50:08;135.18;;;13.80;;
4696;SDS011;2362;50.780;0.292;2022-12-22T15:52:41;138.90;;;14.07;;
4696;SDS011;2362;50.780;0.292;2022-12-22T15:55:19;135.50;;;14.45;;
4696;SDS011;2362;50.780;0.292;2022-12-22T15:57:49;110.63;;;12.57;;
4696;SDS011;2362;50.780;0.292;2022-12-22T16:00:18;109.47;;;12.98;;
4696;SDS011;2362;50.780;0.292;2022-12-22T16:02:44;116.22;;;14.15;;
4696;SDS011;2362;50.780;0.292;2022-12-22T16:05:10;132.63;;;12.43;;
4696;SDS011;2362;50.780;0.292;2022-12-22T16:07:36;113.43;;;13.63;;
4696;SDS011;2362;50.780;0.292;2022-12-22T16:10:05;122.93;;;12.48;;
4696;SDS011;2362;50.780;0.292;2022-12-22T16:12:32;114.32;;;15.07;;
4696;SDS011;2362;50.780;0.292;2022-12-22T16:14:58;114.45;;;11.80;;
4696;SDS011;2362;50.780;0.292;2022-12-22T16:17:26;91.38;;;11.77;;
4696;SDS011;2362;50.780;0.292;2022-12-22T16:19:52;110.85;;;11.68;;
4696;SDS011;2362;50.780;0.292;2022-12-22T16:22:26;109.60;;;11.20;;
4696;SDS011;2362;50.780;0.292;2022-12-22T16:24:56;129.38;;;21.23;;
4696;SDS011;2362;50.780;0.292;2022-12-22T16:27:21;94.78;;;11.10;;
4696;SDS011;2362;50.780;0.292;2022-12-22T16:29:48;96.13;;;12.52;;
4696;SDS011;2362;50.780;0.292;2022-12-22T16:34:45;100.07;;;10.65;;
4696;SDS011;2362;50.780;0.292;2022-12-22T16:37:12;95.05;;;10.90;;
4696;SDS011;2362;50.780;0.292;2022-12-22T16:39:38;111.53;;;12.52;;
4696;SDS011;2362;50.780;0.292;2022-12-22T16:42:05;71.82;;;11.63;;
4696;SDS011;2362;50.780;0.292;2022-12-22T16:44:36;94.35;;;17.38;;
4696;SDS011;2362;50.780;0.292;2022-12-22T16:47:02;82.40;;;15.05;;
4696;SDS011;2362;50.780;0.292;2022-12-22T16:49:29;81.00;;;11.50;;
4696;SDS011;2362;50.780;0.292;2022-12-22T16:51:55;72.65;;;10.75;;
4696;SDS011;2362;50.780;0.292;2022-12-22T16:54:23;91.85;;;12.40;;
4696;SDS011;2362;50.780;0.292;2022-12-22T16:56:50;85.70;;;10.43;;
4696;SDS011;2362;50.780;0.292;2022-12-22T16:59:16;88.88;;;8.73;;
4696;SDS011;2362;50.780;0.292;2022-12-22T17:01:49;76.65;;;8.25;;
4696;SDS011;2362;50.780;0.292;2022-12-22T17:04:29;62.03;;;7.30;;
4696;SDS011;2362;50.780;0.292;2022-12-22T17:06:57;45.75;;;6.93;;
4696;SDS011;2362;50.780;0.292;2022-12-22T17:09:26;54.60;;;6.43;;
4696;SDS011;2362;50.780;0.292;2022-12-22T17:11:58;56.03;;;5.25;;
4696;SDS011;2362;50.780;0.292;2022-12-22T17:14:30;53.95;;;6.85;;
4696;SDS011;2362;50.780;0.292;2022-12-22T17:16:58;53.20;;;7.05;;
4696;SDS011;2362;50.780;0.292;2022-12-22T17:19:24;63.15;;;6.35;;
4696;SDS011;2362;50.780;0.292;2022-12-22T17:21:50;40.53;;;6.65;;
4696;SDS011;2362;50.780;0.292;2022-12-22T17:24:17;67.53;;;6.55;;
4696;SDS011;2362;50.780;0.292;2022-12-22T17:26:45;76.40;;;7.65;;
4696;SDS011;2362;50.780;0.292;2022-12-22T17:29:13;55.13;;;7.00;;
4696;SDS011;2362;50.780;0.292;2022-12-22T17:31:47;49.88;;;5.95;;
4696;SDS011;2362;50.780;0.292;2022-12-22T17:34:14;65.07;;;6.88;;
4696;SDS011;2362;50.780;0.292;2022-12-22T17:36:41;55.88;;;7.40;;
4696;SDS011;2362;50.780;0.292;2022-12-22T17:39:12;51.33;;;5.70;;